createdAt,value
2018-04-19T00:01:54.069Z,16.34
2018-04-19T00:04:21.739Z,16.40
2018-04-19T00:06:49.466Z,16.46
2018-04-19T00:09:17.067Z,16.56
2018-04-19T00:11:44.801Z,16.58
2018-04-19T00:14:12.580Z,16.55
2018-04-19T00:16:40.252Z,16.54
2018-04-19T00:19:07.936Z,16.52
2018-04-19T00:21:35.563Z,16.55
2018-04-19T00:24:03.213Z,16.59
2018-04-19T00:26:30.831Z,16.62
2018-04-19T00:28:58.592Z,16.68
2018-04-19T00:31:26.232Z,16.73
2018-04-19T00:33:53.807Z,16.70
2018-04-19T00:36:21.610Z,16.56
2018-04-19T00:38:49.192Z,16.53
2018-04-19T00:41:16.789Z,16.55
2018-04-19T00:43:45.227Z,16.56
2018-04-19T00:46:13.549Z,16.56
2018-04-19T00:48:41.142Z,16.57
2018-04-19T00:51:08.842Z,16.56
2018-04-19T00:53:37.103Z,16.58
2018-04-19T00:56:04.772Z,16.53
2018-04-19T00:58:32.480Z,16.41
2018-04-19T01:01:00.126Z,16.35
2018-04-19T01:03:27.711Z,16.32
2018-04-19T01:05:56.249Z,16.32
2018-04-19T01:08:24.423Z,16.29
2018-04-19T01:10:52.070Z,16.26
2018-04-19T01:13:19.786Z,16.23
2018-04-19T01:15:47.366Z,15.99
2018-04-19T01:18:14.947Z,15.81
2018-04-19T01:20:42.630Z,15.72
2018-04-19T01:23:10.285Z,15.72
2018-04-19T01:25:37.957Z,15.76
2018-04-19T01:28:05.658Z,15.74
2018-04-19T01:30:33.249Z,15.74
2018-04-19T01:33:00.833Z,15.75
2018-04-19T01:35:40.385Z,15.76
2018-04-19T01:38:08.129Z,15.79
2018-04-19T01:40:35.760Z,15.82
2018-04-19T01:43:03.501Z,15.88
2018-04-19T01:45:31.092Z,15.93
2018-04-19T01:47:58.763Z,16.00
2018-04-19T01:50:26.388Z,16.02
2018-04-19T01:52:54.041Z,15.99
2018-04-19T01:55:21.645Z,16.00
2018-04-19T01:57:49.282Z,16.03
2018-04-19T02:00:16.872Z,16.06
2018-04-19T02:02:44.475Z,16.07
2018-04-19T02:05:12.118Z,16.11
2018-04-19T02:07:39.782Z,16.11
2018-04-19T02:10:07.400Z,16.13
2018-04-19T02:12:35.140Z,16.11
2018-04-19T02:15:02.788Z,16.09
2018-04-19T02:17:30.376Z,16.10
2018-04-19T02:19:58.979Z,16.10
2018-04-19T02:22:26.636Z,16.09
2018-04-19T02:24:54.215Z,16.10
2018-04-19T02:27:21.968Z,16.06
2018-04-19T02:29:49.629Z,15.98
2018-04-19T02:32:17.218Z,15.92
2018-04-19T02:34:44.922Z,15.89
2018-04-19T02:37:12.509Z,15.87
2018-04-19T02:39:40.252Z,15.84
2018-04-19T02:42:07.905Z,15.79
2018-04-19T02:44:35.545Z,15.76
2018-04-19T02:47:03.208Z,15.77
2018-04-19T02:49:30.857Z,15.76
2018-04-19T02:51:58.485Z,15.76
2018-04-19T02:54:26.137Z,15.73
2018-04-19T02:56:53.903Z,15.68
2018-04-19T02:59:21.544Z,15.67
2018-04-19T03:01:49.140Z,15.69
2018-04-19T03:04:16.882Z,15.69
2018-04-19T03:06:44.543Z,15.64
2018-04-19T03:09:12.129Z,15.57
2018-04-19T03:11:39.854Z,15.53
2018-04-19T03:14:07.454Z,15.49
2018-04-19T03:16:35.116Z,15.42
2018-04-19T03:19:02.839Z,15.44
2018-04-19T03:21:30.490Z,15.49
2018-04-19T03:23:58.133Z,15.47
2018-04-19T03:26:25.773Z,15.48
2018-04-19T03:28:53.415Z,15.55
2018-04-19T03:31:20.997Z,15.59
2018-04-19T03:33:48.743Z,15.65
2018-04-19T03:36:16.339Z,15.70
2018-04-19T03:38:43.924Z,15.78
2018-04-19T03:41:11.739Z,15.87
2018-04-19T03:43:39.405Z,15.95
2018-04-19T03:46:07.015Z,16.02
2018-04-19T03:48:34.768Z,16.07
2018-04-19T03:51:02.370Z,16.13
2018-04-19T03:53:30.037Z,16.11
2018-04-19T03:55:57.705Z,16.17
2018-04-19T03:58:25.287Z,16.22
2018-04-19T04:00:52.880Z,16.29
2018-04-19T04:03:20.605Z,16.32
2018-04-19T04:05:48.243Z,16.34
2018-04-19T04:08:15.845Z,16.36
2018-04-19T04:10:43.625Z,16.35
2018-04-19T04:13:11.243Z,16.37
2018-04-19T04:15:38.823Z,16.42
2018-04-19T04:18:18.332Z,16.49
2018-04-19T04:20:57.737Z,16.59
2018-04-19T04:23:55.051Z,16.67
2018-04-19T04:26:22.650Z,16.76
2018-04-19T04:28:50.253Z,16.83
2018-04-19T04:31:17.991Z,16.89
2018-04-19T04:33:45.646Z,16.95
2018-04-19T04:36:13.235Z,17.03
2018-04-19T04:38:40.989Z,17.09
2018-04-19T04:41:08.644Z,17.10
2018-04-19T04:43:37.024Z,17.14
2018-04-19T04:46:04.716Z,17.20
2018-04-19T04:48:32.380Z,17.25
2018-04-19T04:51:00.006Z,17.31
2018-04-19T04:53:27.723Z,17.38
2018-04-19T04:55:55.345Z,17.42
2018-04-19T04:58:22.987Z,17.49
2018-04-19T05:00:50.672Z,17.54
2018-04-19T05:03:18.255Z,17.60
2018-04-19T05:05:45.903Z,17.68
2018-04-19T05:08:13.613Z,17.77
2018-04-19T05:10:41.208Z,17.84
2018-04-19T05:13:08.824Z,17.90
2018-04-19T05:15:36.623Z,17.95
2018-04-19T05:18:04.215Z,18.00
2018-04-19T05:20:31.801Z,18.04
2018-04-19T05:22:59.533Z,18.09
2018-04-19T05:25:27.203Z,18.13
2018-04-19T05:27:55.414Z,18.13
2018-04-19T05:30:23.205Z,18.13
2018-04-19T05:32:50.801Z,18.13
2018-04-19T05:35:18.387Z,18.19
2018-04-19T05:37:46.036Z,18.24
2018-04-19T05:40:14.451Z,18.35
2018-04-19T05:42:42.112Z,18.48
2018-04-19T05:45:09.921Z,18.49
2018-04-19T05:47:37.578Z,18.50
2018-04-19T05:50:05.249Z,18.54
2018-04-19T05:52:32.956Z,18.57
2018-04-19T05:55:00.647Z,18.59
2018-04-19T05:57:28.287Z,18.63
2018-04-19T05:59:55.932Z,18.68
2018-04-19T06:02:23.512Z,18.73
2018-04-19T06:04:51.108Z,18.76
2018-04-19T06:07:18.784Z,18.82
2018-04-19T06:09:46.441Z,18.87
2018-04-19T06:12:14.080Z,18.92
2018-04-19T06:14:41.731Z,19.02
2018-04-19T06:17:09.473Z,19.11
2018-04-19T06:19:37.161Z,19.21
2018-04-19T06:22:04.921Z,19.28
2018-04-19T06:24:32.564Z,19.38
2018-04-19T06:27:00.147Z,19.50
2018-04-19T06:29:27.890Z,19.55
2018-04-19T06:31:55.572Z,19.58
2018-04-19T06:34:23.218Z,19.55
2018-04-19T06:36:50.868Z,19.57
2018-04-19T06:39:18.525Z,19.61
2018-04-19T06:41:46.145Z,19.61
2018-04-19T06:44:13.892Z,19.34
2018-04-19T06:46:41.671Z,19.27
2018-04-19T06:49:09.889Z,18.96
2018-04-19T06:51:37.529Z,18.82
2018-04-19T06:54:05.124Z,18.76
2018-04-19T06:56:32.711Z,18.69
2018-04-19T06:59:00.505Z,18.53
2018-04-19T07:01:28.159Z,18.40
2018-04-19T07:03:56.396Z,18.48
2018-04-19T07:06:24.092Z,18.51
2018-04-19T07:08:51.762Z,18.53
2018-04-19T07:11:19.347Z,18.58
2018-04-19T07:13:47.054Z,18.65
2018-04-19T07:16:14.712Z,18.80
2018-04-19T07:18:42.359Z,18.93
2018-04-19T07:21:10.126Z,19.16
2018-04-19T07:23:37.771Z,19.42
2018-04-19T07:26:05.448Z,19.63
2018-04-19T07:28:33.113Z,19.88
2018-04-19T07:31:00.732Z,20.11
2018-04-19T07:33:28.419Z,20.19
2018-04-19T07:35:56.144Z,20.16
2018-04-19T07:38:23.732Z,20.12
2018-04-19T07:40:51.322Z,20.18
2018-04-19T07:43:19.016Z,20.25
2018-04-19T07:45:46.616Z,20.33
2018-04-19T07:48:14.299Z,20.39
2018-04-19T07:50:41.952Z,20.37
2018-04-19T07:53:09.600Z,20.24
2018-04-19T07:55:37.262Z,19.93
2018-04-19T07:58:04.945Z,19.89
2018-04-19T08:00:32.541Z,19.77
2018-04-19T08:03:00.135Z,19.60
2018-04-19T08:05:27.916Z,19.59
2018-04-19T08:07:55.617Z,19.65
2018-04-19T08:10:23.216Z,19.61
2018-04-19T08:12:50.856Z,19.67
2018-04-19T08:15:18.506Z,19.63
2018-04-19T08:17:46.085Z,19.62
2018-04-19T08:20:13.747Z,19.51
2018-04-19T08:22:41.400Z,19.59
2018-04-19T08:25:09.069Z,19.67
2018-04-19T08:27:36.811Z,19.70
2018-04-19T08:30:04.425Z,19.73
2018-04-19T08:32:32.009Z,19.78
2018-04-19T08:34:59.736Z,19.85
2018-04-19T08:37:27.319Z,19.81
2018-04-19T08:39:54.906Z,19.82
2018-04-19T08:42:22.680Z,19.75
2018-04-19T08:44:50.883Z,19.98
2018-04-19T08:47:19.235Z,20.10
2018-04-19T08:49:47.044Z,20.10
2018-04-19T08:52:14.635Z,20.12
2018-04-19T08:54:42.218Z,20.18
2018-04-19T08:57:09.855Z,20.44
2018-04-19T08:59:37.436Z,20.80
2018-04-19T09:02:05.059Z,20.98
2018-04-19T09:04:32.747Z,21.37
2018-04-19T09:07:00.371Z,21.78
2018-04-19T09:09:27.971Z,21.92
2018-04-19T09:11:56.655Z,22.03
2018-04-19T09:14:24.310Z,22.01
2018-04-19T09:16:51.905Z,22.02
2018-04-19T09:19:19.632Z,22.00
2018-04-19T09:21:47.327Z,22.12
2018-04-19T09:24:14.994Z,22.21
2018-04-19T09:26:43.296Z,22.25
2018-04-19T09:29:10.916Z,21.98
2018-04-19T09:31:38.528Z,21.79
2018-04-19T09:34:06.244Z,21.48
2018-04-19T09:36:33.833Z,21.41
2018-04-19T09:39:01.435Z,21.29
2018-04-19T09:41:29.132Z,21.15
2018-04-19T09:43:56.737Z,21.01
2018-04-19T09:46:24.390Z,21.04
2018-04-19T09:48:52.027Z,21.15
2018-04-19T09:51:24.239Z,21.18
2018-04-19T09:53:52.260Z,21.06
2018-04-19T09:56:19.809Z,21.00
2018-04-19T09:58:59.315Z,21.07
2018-04-19T10:01:26.932Z,21.18
2018-04-19T10:03:54.560Z,21.19
2018-04-19T10:06:22.209Z,21.06
2018-04-19T10:08:49.796Z,21.02
2018-04-19T10:11:17.428Z,21.11
2018-04-19T10:13:45.081Z,21.60
2018-04-19T10:16:13.338Z,22.08
2018-04-19T10:18:40.938Z,22.54
2018-04-19T10:21:08.663Z,22.87
2018-04-19T10:23:36.262Z,23.22
2018-04-19T10:26:03.852Z,23.30
2018-04-19T10:28:31.584Z,23.47
2018-04-19T10:30:59.232Z,23.81
2018-04-19T10:33:26.828Z,24.07
2018-04-19T10:35:54.546Z,24.11
2018-04-19T10:38:22.151Z,24.05
2018-04-19T10:40:49.807Z,24.37
2018-04-19T10:43:17.649Z,24.54
2018-04-19T10:45:45.305Z,24.13
2018-04-19T10:48:12.969Z,23.64
2018-04-19T10:50:40.661Z,23.36
2018-04-19T10:53:08.797Z,23.10
2018-04-19T10:55:36.436Z,23.02
2018-04-19T10:58:04.140Z,23.11
2018-04-19T11:00:31.721Z,22.80
2018-04-19T11:02:59.306Z,22.71
2018-04-19T11:05:26.948Z,22.80
2018-04-19T11:07:54.605Z,22.95
2018-04-19T11:10:22.242Z,23.32
2018-04-19T11:12:50.013Z,23.31
2018-04-19T11:15:17.606Z,23.24
2018-04-19T11:17:45.953Z,23.37
2018-04-19T11:20:13.612Z,23.48
2018-04-19T11:22:41.256Z,23.65
2018-04-19T11:25:08.851Z,23.87
2018-04-19T11:27:36.489Z,23.70
2018-04-19T11:30:04.168Z,23.67
2018-04-19T11:32:31.756Z,23.50
2018-04-19T11:34:59.394Z,23.22
2018-04-19T11:37:26.995Z,23.03
2018-04-19T11:39:54.637Z,23.05
2018-04-19T11:42:22.356Z,23.12
2018-04-19T11:44:50.013Z,23.31
2018-04-19T11:47:17.746Z,23.46
2018-04-19T11:49:45.456Z,23.47
2018-04-19T11:52:13.049Z,23.38
2018-04-19T11:54:40.871Z,23.39
2018-04-19T11:57:08.535Z,23.52
2018-04-19T11:59:36.157Z,23.58
2018-04-19T12:02:03.872Z,23.64
2018-04-19T12:04:31.526Z,23.88
2018-04-19T12:06:59.265Z,24.24
2018-04-19T12:09:26.917Z,24.68
2018-04-19T12:11:54.597Z,24.34
2018-04-19T12:14:22.222Z,24.29
2018-04-19T12:16:49.801Z,24.47
2018-04-19T12:19:17.540Z,24.51
2018-04-19T12:21:45.127Z,24.58
2018-04-19T12:24:12.747Z,24.26
2018-04-19T12:26:40.439Z,24.42
2018-04-19T12:29:08.032Z,24.64
2018-04-19T12:31:35.673Z,24.40
2018-04-19T12:34:03.481Z,24.40
2018-04-19T12:36:31.088Z,24.44
2018-04-19T12:38:58.670Z,24.30
2018-04-19T12:41:26.389Z,24.30
2018-04-19T12:43:53.984Z,24.55
2018-04-19T12:46:21.639Z,24.86
2018-04-19T12:48:49.279Z,24.63
2018-04-19T12:51:16.898Z,24.69
2018-04-19T12:53:44.488Z,24.91
2018-04-19T12:56:12.244Z,24.86
2018-04-19T12:58:39.833Z,24.62
2018-04-19T13:01:07.461Z,24.35
2018-04-19T13:03:35.166Z,24.17
2018-04-19T13:06:02.776Z,23.96
2018-04-19T13:08:30.435Z,24.03
2018-04-19T13:10:58.124Z,23.99
2018-04-19T13:13:25.710Z,24.10
2018-04-19T13:15:53.344Z,24.01
2018-04-19T13:18:21.093Z,23.85
2018-04-19T13:20:48.730Z,23.58
2018-04-19T13:23:16.386Z,23.19
2018-04-19T13:25:44.052Z,23.20
2018-04-19T13:28:11.721Z,23.32
2018-04-19T13:30:39.340Z,23.51
2018-04-19T13:33:07.011Z,23.52
2018-04-19T13:35:34.595Z,23.59
2018-04-19T13:38:02.173Z,23.60
2018-04-19T13:40:29.820Z,23.63
2018-04-19T13:42:57.501Z,23.54
2018-04-19T13:45:25.089Z,23.37
2018-04-19T13:47:52.801Z,23.28
2018-04-19T13:50:20.605Z,23.20
2018-04-19T13:52:48.253Z,23.20
2018-04-19T13:55:16.044Z,23.38
2018-04-19T13:57:43.772Z,23.42
2018-04-19T14:00:11.368Z,23.53
2018-04-19T14:02:39.314Z,23.52
2018-04-19T14:05:06.981Z,23.58
2018-04-19T14:07:34.585Z,23.56
2018-04-19T14:10:02.348Z,23.54
2018-04-19T14:12:29.975Z,23.52
2018-04-19T14:14:57.559Z,23.37
2018-04-19T14:17:25.207Z,23.12
2018-04-19T14:19:52.837Z,23.26
2018-04-19T14:22:21.015Z,23.45
2018-04-19T14:24:48.660Z,23.50
2018-04-19T14:27:16.300Z,23.46
2018-04-19T14:32:21.820Z,23.52
2018-04-19T14:34:50.012Z,23.47
2018-04-19T14:37:17.604Z,23.37
2018-04-19T14:39:45.251Z,23.29
2018-04-19T14:42:12.852Z,23.27
2018-04-19T14:44:41.069Z,23.11
2018-04-19T14:47:08.769Z,23.13
2018-04-19T14:49:36.355Z,23.13
2018-04-19T14:52:03.968Z,23.15
2018-04-19T14:54:31.729Z,23.19
2018-04-19T14:56:59.304Z,23.17
2018-04-19T14:59:27.159Z,23.09
2018-04-19T15:01:54.797Z,23.04
2018-04-19T15:04:22.433Z,22.97
2018-04-19T15:06:50.015Z,22.92
2018-04-19T15:09:17.718Z,22.90
2018-04-19T15:11:45.345Z,22.95
2018-04-19T15:14:13.016Z,22.97
2018-04-19T15:16:40.802Z,22.96
2018-04-19T15:19:08.441Z,22.86
2018-04-19T15:21:36.017Z,22.84
2018-04-19T15:24:03.763Z,22.80
2018-04-19T15:26:31.408Z,22.84
2018-04-19T15:28:59.024Z,22.84
2018-04-19T15:31:26.648Z,22.88
2018-04-19T15:33:54.616Z,22.84
2018-04-19T15:36:22.940Z,22.81
2018-04-19T15:38:50.657Z,22.83
2018-04-19T15:41:18.353Z,22.75
2018-04-19T15:43:45.910Z,22.70
2018-04-19T15:46:13.784Z,22.62
2018-04-19T15:48:41.403Z,22.54
2018-04-19T15:51:08.998Z,22.55
2018-04-19T15:53:36.627Z,22.56
2018-04-19T15:56:04.297Z,22.62
2018-04-19T15:58:31.944Z,22.62
2018-04-19T16:00:59.734Z,22.62
2018-04-19T16:03:27.946Z,22.64
2018-04-19T16:05:56.311Z,22.57
2018-04-19T16:08:24.131Z,22.49
2018-04-19T16:10:51.791Z,22.44
2018-04-19T16:13:19.384Z,22.42
2018-04-19T16:15:47.092Z,22.39
2018-04-19T16:18:14.667Z,22.33
2018-04-19T16:20:42.273Z,22.32
2018-04-19T16:23:10.061Z,22.29
2018-04-19T16:25:37.662Z,22.23
2018-04-19T16:28:05.325Z,22.15
2018-04-19T16:30:32.956Z,22.08
2018-04-19T16:33:00.556Z,21.95
2018-04-19T16:35:28.173Z,21.81
2018-04-19T16:37:56.194Z,21.65
2018-04-19T16:40:23.896Z,21.55
2018-04-19T16:42:51.563Z,21.47
2018-04-19T16:45:20.218Z,21.39
2018-04-19T16:47:47.816Z,21.27
2018-04-19T16:50:15.446Z,21.19
2018-04-19T16:52:44.475Z,21.18
2018-04-19T16:55:12.149Z,21.16
2018-04-19T16:57:42.296Z,21.11
2018-04-19T17:00:11.254Z,21.00
2018-04-19T17:02:39.024Z,20.90
2018-04-19T17:05:06.652Z,20.81
2018-04-19T17:07:35.226Z,20.74
2018-04-19T17:10:02.903Z,20.64
2018-04-19T17:12:30.757Z,20.54
2018-04-19T17:14:58.419Z,20.42
2018-04-19T17:17:26.028Z,20.26
2018-04-19T17:19:53.620Z,20.06
2018-04-19T17:22:21.345Z,19.85
2018-04-19T17:24:48.931Z,19.72
2018-04-19T17:27:16.524Z,19.54
2018-04-19T17:29:44.228Z,19.37
2018-04-19T17:32:11.888Z,19.18
2018-04-19T17:34:39.523Z,19.12
2018-04-19T17:37:07.312Z,19.06
2018-04-19T17:39:34.910Z,19.00
2018-04-19T17:42:02.572Z,18.95
2018-04-19T17:44:30.292Z,18.92
2018-04-19T17:46:57.952Z,18.90
2018-04-19T17:49:26.690Z,18.88
2018-04-19T17:51:54.435Z,18.86
2018-04-19T17:54:22.152Z,18.84
2018-04-19T17:56:49.808Z,18.85
2018-04-19T17:59:18.036Z,18.85
2018-04-19T18:01:45.697Z,18.81
2018-04-19T18:04:13.417Z,18.79
2018-04-19T18:06:41.066Z,18.80
2018-04-19T18:09:08.653Z,18.81
2018-04-19T18:11:36.301Z,18.81
2018-04-19T18:14:03.950Z,18.78
2018-04-19T18:16:31.632Z,18.75
2018-04-19T18:18:59.338Z,18.74
2018-04-19T18:21:26.992Z,18.75
2018-04-19T18:23:54.595Z,18.75
2018-04-19T18:26:22.284Z,18.74
2018-04-19T18:28:49.932Z,18.76
2018-04-19T18:31:17.608Z,18.80
2018-04-19T18:33:45.255Z,18.83
2018-04-19T18:36:12.901Z,18.86
2018-04-19T18:38:40.580Z,18.91
2018-04-19T18:41:08.421Z,18.98
2018-04-19T18:43:36.219Z,19.00
2018-04-19T18:46:03.839Z,18.98
2018-04-19T18:48:31.515Z,18.98
2018-04-19T18:50:59.308Z,18.96
2018-04-19T18:53:26.891Z,18.98
2018-04-19T18:55:54.464Z,18.98
2018-04-19T18:58:22.151Z,18.97
2018-04-19T19:00:49.747Z,18.99
2018-04-19T19:03:17.398Z,19.04
2018-04-19T19:05:45.271Z,19.05
2018-04-19T19:08:12.873Z,19.08
2018-04-19T19:10:40.457Z,19.09
2018-04-19T19:13:08.312Z,19.06
2018-04-19T19:19:00.856Z,18.93
2018-04-19T19:21:28.446Z,18.85
2018-04-19T19:23:56.033Z,18.81
2018-04-19T19:26:23.841Z,18.78
2018-04-19T19:28:51.451Z,18.73
2018-04-19T19:31:19.089Z,18.77
2018-04-19T19:33:46.736Z,18.74
2018-04-19T19:36:14.330Z,18.70
2018-04-19T19:38:42.005Z,18.66
2018-04-19T19:41:09.784Z,18.69
2018-04-19T19:43:37.440Z,18.67
2018-04-19T19:46:05.088Z,18.73
2018-04-19T19:48:32.873Z,18.76
2018-04-19T19:51:00.462Z,18.84
2018-04-19T19:53:28.700Z,18.84
2018-04-19T19:55:56.339Z,18.90
2018-04-19T19:58:23.964Z,18.95
2018-04-19T20:00:51.569Z,18.95
2018-04-19T20:03:19.344Z,18.86
2018-04-19T20:05:47.166Z,18.77
2018-04-19T20:08:14.774Z,18.67
2018-04-19T20:10:42.579Z,18.60
2018-04-19T20:13:10.166Z,18.57
2018-04-19T20:15:37.832Z,18.56
2018-04-19T20:18:05.480Z,18.57
2018-04-19T20:20:33.737Z,18.58
2018-04-19T20:23:01.344Z,18.57
2018-04-19T20:25:28.970Z,18.62
2018-04-19T20:27:56.612Z,18.67
2018-04-19T20:30:24.795Z,18.72
2018-04-19T20:32:52.513Z,18.81
2018-04-19T20:35:20.093Z,18.80
2018-04-19T20:37:47.659Z,18.82
2018-04-19T20:40:15.446Z,18.94
2018-04-19T20:42:43.085Z,19.10
2018-04-19T20:45:10.663Z,19.22
2018-04-19T20:47:38.296Z,19.23
2018-04-19T20:50:05.882Z,19.25
2018-04-19T20:52:33.496Z,19.28
2018-04-19T20:55:01.155Z,19.38
2018-04-19T20:57:28.736Z,19.49
2018-04-19T20:59:56.329Z,19.54
2018-04-19T21:02:24.028Z,19.62
2018-04-19T21:04:51.623Z,19.62
2018-04-19T21:07:19.268Z,19.65
2018-04-19T21:09:46.909Z,19.74
2018-04-19T21:12:14.519Z,19.82
2018-04-19T21:14:42.103Z,19.84
2018-04-19T21:17:09.804Z,19.90
2018-04-19T21:19:37.478Z,19.97
2018-04-19T21:22:05.748Z,20.09
2018-04-19T21:24:33.487Z,20.13
2018-04-19T21:27:01.061Z,20.14
2018-04-19T21:29:28.705Z,20.16
2018-04-19T21:31:56.456Z,20.23
2018-04-19T21:34:24.048Z,20.18
2018-04-19T21:36:51.687Z,20.16
2018-04-19T21:39:19.421Z,20.12
2018-04-19T21:41:47.001Z,20.14
2018-04-19T21:44:14.564Z,20.18
2018-04-19T21:46:42.360Z,20.19
2018-04-19T21:49:09.992Z,20.19
2018-04-19T21:51:37.649Z,20.17
2018-04-19T21:54:05.376Z,20.17
2018-04-19T21:56:33.025Z,20.21
2018-04-19T21:59:00.615Z,20.18
2018-04-19T22:01:28.333Z,20.18
2018-04-19T22:03:55.912Z,20.17
2018-04-19T22:06:23.508Z,20.15
2018-04-19T22:08:51.283Z,20.13
2018-04-19T22:11:18.866Z,20.09
2018-04-19T22:13:46.435Z,20.05
2018-04-19T22:16:14.221Z,20.00
2018-04-19T22:18:42.045Z,19.96
2018-04-19T22:21:09.628Z,19.92
2018-04-19T22:23:37.266Z,19.86
2018-04-19T22:26:04.868Z,19.85
2018-04-19T22:28:32.452Z,19.83
2018-04-19T22:31:00.172Z,19.82
2018-04-19T22:33:28.484Z,19.80
2018-04-19T22:35:56.057Z,19.84
2018-04-19T22:38:23.696Z,19.86
2018-04-19T22:40:51.272Z,19.84
2018-04-19T22:43:18.858Z,19.85
2018-04-19T22:45:46.545Z,19.86
2018-04-19T22:48:14.145Z,19.86
2018-04-19T22:50:41.755Z,19.83
2018-04-19T22:53:09.480Z,19.76
2018-04-19T22:55:37.064Z,19.73
2018-04-19T22:58:04.652Z,19.69
2018-04-19T23:00:32.358Z,19.67
2018-04-19T23:02:59.932Z,19.67
2018-04-19T23:05:27.530Z,19.63
2018-04-19T23:07:55.236Z,19.58
2018-04-19T23:10:23.032Z,19.54
2018-04-19T23:12:50.608Z,19.48
2018-04-19T23:15:18.236Z,19.45
2018-04-19T23:17:45.899Z,19.40
2018-04-19T23:20:13.545Z,19.43
2018-04-19T23:22:41.332Z,19.48
2018-04-19T23:25:09.098Z,19.45
2018-04-19T23:27:36.709Z,19.39
2018-04-19T23:30:04.483Z,19.37
2018-04-19T23:32:32.128Z,19.39
2018-04-19T23:34:59.704Z,19.37
2018-04-19T23:37:27.383Z,19.35
2018-04-19T23:39:54.971Z,19.32
2018-04-19T23:42:22.572Z,19.31
2018-04-19T23:44:50.309Z,19.38
2018-04-19T23:47:17.940Z,19.39
2018-04-19T23:49:45.515Z,19.35
2018-04-19T23:52:13.223Z,19.33
2018-04-19T23:54:40.853Z,19.39
2018-04-19T23:57:08.453Z,19.35
2018-04-19T23:59:36.245Z,19.33
